METAR/TAF

Belfast City Airport
BELFAST HARBOUR
Metar
EGAC 211650Z AUTO 12010KT 100V160 9999 NCD 16/08 Q1012

16:50 UTC

Wind: 120° 10kt

Visibility: 9999 m

Sky:

Temp: 16 deg C / 60.8 deg F

Dewpoint: 8 deg C / 46.4 deg F

Pressure: 1012 hPa

TAF
TAF EGAC 211355Z 2115/2121 15012KT CAVOK
Belfast International Airport
BELFAST/ALDERGRO
Metar
EGAA 211650Z 14009KT CAVOK 16/07 Q1012

16:50 UTC

Wind: 140° 9kt

Visibility:

Sky:

Temp: 16 deg C / 60.8 deg F

Dewpoint: 7 deg C / 44.6 deg F

Pressure: 1012 hPa

TAF
TAF EGAA 211058Z 2112/2212 16012KT 9999 FEW030 BECMG 2203/2206 22012KT BKN012 TEMPO 2204/2209 7000 RA BKN008 BECMG 2206/2209 FEW012 SCT020 PROB40 TEMPO 2209/2212 7000 SHRA BKN012
Print Friendly, PDF & Email